Higginson, Arkansas
Current Conditions -  °F | °C
As of 5:56 AM on Friday 28 Nov 2014 (Local Time) from KSRC Reporting Station
Haze Haze  
Wind Chill: 25°   Ceiling: Unl
Heat Index: 25°   Visibility: 5mi
Dew Point: 24°   Wind: 0mph
Humidity: 96%   Direction: NA
Pressure: 30.38"   Gusts: NA
Location:  35.19°N, 91.71°W
Report Text: KSRC 281156Z AUTO 00000KT 5SM BR CLR M04/M04 A3038 RMK AO2 SLP295 T10391044 11017 21039 58012 FZRANO TSNO
Loading
Personal Weather Stations






























Interactive Weather Map New forecast layout! Learn more

10-Day Weather Forecast

Advertisements
Track Severe Weather on mobile